< < Back
Terminal Aerodrome Forecast


Current Version              Previous Versions:   1  2  3  4  5  6  7  8  9  

Terminal Aerodrome Forecast

128
FTUS42 KGSP 301739
TAFCLT
TAF
KCLT 301739Z 3018/3118 01008KT P6SM SCT035 BKN060
     FM310100 05006KT P6SM BKN250
     FM310800 02003KT P6SM SCT008 BKN020
     FM311000 02004KT P6SM BKN008 OVC020
     FM311400 04006KT P6SM SCT015 BKN035=



Latest METAR

602
SAUS70 KWBC 302000 RRH
MTRCLT
METAR KCLT 301952Z 36012KT 10SM FEW034 SCT060 BKN250 28/18 A2993 RMK AO2
SLP128 CB DSNT SE T02780183


USA.gov is the U.S. government's official web portal to all federal, state and local government web resources and services.